Aérodrome :
LOGIN :

S'inscrire | Disclaimer

   EN    FR    IT 

 










Légende :    VFR   VFR Marginal   IFR   IFR Intensif   IFR Très Intensif
Visi : 
Plafond : 
>= 8 km
>= 3000ft
5 à 8 km
1000 à 3000 ft
1500m à 5 km
500 à 1000 ft
800 à 1500m
200 à 500 ft
< 800m
< 200 ft
Symboles :   Orages  Brouillard  Fortes neiges  Fortes précipitations  Vent > 20 kt
SIGMETs :   Divers  Orages  Givrage  Turbulence  Onde Orograph.  Cendres Volcan.






- Altitude de l'aérodrome : 529 ft
- Code IATA : CHR


LFLX - Chateauroux

DERNIER METAR :
  • 281830Z AUTO 31007KT CAVOK 12/05 Q1018 NOSIG

METARs EXPIRÉS :
  • 281800Z AUTO 31008KT CAVOK 13/05 Q1018 NOSIG
  • 281730Z AUTO 33006KT CAVOK 15/05 Q1018 NOSIG
  • 281700Z AUTO 32005KT CAVOK 16/04 Q1018 NOSIG
  • 281630Z AUTO 33005KT 310V010 CAVOK 16/04 Q1017 NOSIG
  • 281600Z AUTO 02005KT 350V050 CAVOK 16/04 Q1017 NOSIG

TAF TAF LFLX
Valide du 28 à 18h jusqu'au 30 à 00h UTC


281700Z 2818/2924 35005KT CAVOK
BECMG 2902/2905 03015G25KT BKN020
TEMPO 2903/2908 -RA BKN012
BECMG 2909/2912 BKN030
BECMG 2912/2915 CAVOK
TEMPO 2916/2923 04020G30KT



MET'MAP, la Météo Aéronautique d'un coup d'oeil ! - Copyright ORBIFLY Décembre 2007 - Disclaimer

ORBIFLY MET'MAP TEAM :

Programmation & Développement : Alexandra Zaïnal
Sur une idée originale de : Baudouin d'Aumeries
Assistance à la programmation : Marc-Olivier Méhu
Soutien technique & logistique : Manuel Goepfert

Contact : metmap@orbifly.com




SOURCES & CREDITS :

   NOAA